Time;durP1;ratioP1;P1;durP2;ratioP2;P2;SDS_P1;SDS_P2;PMS_P1;PMS_P2;Temp;Humidity;BMP_temperature;BMP_pressure;BME280_temperature;BME280_humidity;BME280_pressure;Samples;Min_cycle;Max_cycle;Signal;HPM_P1;HPM_P2
2020/12/03 00:01:14;;;;;;;67.00;32.88;;;;;;;5.05;95.76;100807.31;5060226;28;20054;-69
2020/12/03 00:03:45;;;;;;;74.18;33.28;;;;;;;4.84;95.65;100772.78;5047302;28;20494;-69
2020/12/03 00:06:14;;;;;;;80.82;34.00;;;;;;;4.91;95.84;100797.78;5056173;28;20024;-69
2020/12/03 00:08:40;;;;;;;75.25;33.25;;;;;;;4.92;96.37;100796.81;5063168;28;20105;-68
2020/12/03 00:11:06;;;;;;;74.78;32.63;;;;;;;4.90;96.01;100793.44;5052220;28;20035;-69
2020/12/03 00:13:33;;;;;;;63.50;30.65;;;;;;;4.91;95.81;100776.63;5064857;28;20028;-69
2020/12/03 00:15:59;;;;;;;68.25;32.38;;;;;;;4.87;95.55;100780.50;5039869;28;20381;-69
2020/12/03 00:18:25;;;;;;;63.65;30.88;;;;;;;4.52;95.77;100718.78;5064462;28;20514;-69
2020/12/03 00:20:51;;;;;;;70.28;31.10;;;;;;;4.82;95.83;100764.94;5044885;28;20051;-68
2020/12/03 00:23:16;;;;;;;65.25;30.52;;;;;;;4.77;96.17;100764.47;5063222;28;20024;-69
2020/12/03 00:25:42;;;;;;;66.88;30.63;;;;;;;4.78;96.65;100758.22;5061844;28;20131;-69
2020/12/03 00:28:07;;;;;;;70.40;30.92;;;;;;;4.75;96.04;100761.09;5063099;28;20040;-68
2020/12/03 00:30:33;;;;;;;60.10;29.15;;;;;;;4.78;96.47;100760.88;5036093;28;20131;-69
2020/12/03 00:32:58;;;;;;;70.85;30.30;;;;;;;4.75;97.05;100758.47;5059607;28;20113;-69
2020/12/03 00:35:24;;;;;;;57.45;28.50;;;;;;;4.74;96.63;100746.19;5063215;28;20124;-69
2020/12/03 00:37:50;;;;;;;57.80;27.48;;;;;;;4.79;96.74;100743.19;5044343;28;20042;-69
2020/12/03 00:40:16;;;;;;;64.10;26.40;;;;;;;4.78;96.61;100733.56;5028762;28;20117;-69
2020/12/03 00:42:41;;;;;;;52.67;24.83;;;;;;;4.87;96.33;100730.25;5057414;28;20082;-69
2020/12/03 00:45:07;;;;;;;53.13;23.75;;;;;;;4.86;96.07;100729.38;5063852;28;20562;-69
2020/12/03 00:47:34;;;;;;;43.22;21.98;;;;;;;4.94;95.84;100717.38;5063616;28;20036;-69
2020/12/03 00:49:59;;;;;;;50.78;21.75;;;;;;;4.94;95.53;100718.22;5063632;28;20047;-68
2020/12/03 00:52:25;;;;;;;44.67;20.92;;;;;;;4.98;95.06;100721.47;5058909;28;20538;-69
2020/12/03 00:54:50;;;;;;;50.75;21.40;;;;;;;4.98;94.42;100718.81;5063477;28;20167;-69
2020/12/03 00:57:16;;;;;;;43.63;21.73;;;;;;;5.02;94.68;100714.97;5061251;28;20068;-69
2020/12/03 00:59:41;;;;;;;43.90;20.88;;;;;;;5.03;94.63;100706.91;5063034;28;20495;-68
2020/12/03 01:02:08;;;;;;;42.80;19.80;;;;;;;5.07;93.93;100702.25;5058475;28;20123;-68
2020/12/03 01:04:33;;;;;;;41.85;19.15;;;;;;;5.05;94.03;100702.34;5063327;28;20123;-69
2020/12/03 01:06:59;;;;;;;47.75;19.70;;;;;;;5.06;93.73;100703.22;5063476;28;20036;-69
2020/12/03 01:09:24;;;;;;;43.53;19.40;;;;;;;5.06;94.33;100701.38;5060608;28;20115;-69
2020/12/03 01:11:50;;;;;;;41.60;19.15;;;;;;;5.04;94.00;100698.00;5059452;28;20481;-69
2020/12/03 01:14:16;;;;;;;37.85;18.20;;;;;;;5.03;94.26;100693.69;5064047;28;20478;-68
2020/12/03 01:16:41;;;;;;;39.15;17.92;;;;;;;5.07;94.22;100689.03;5061010;28;20050;-69
2020/12/03 01:19:07;;;;;;;32.55;16.88;;;;;;;5.10;93.72;100686.09;5064719;28;22011;-69
2020/12/03 01:21:32;;;;;;;36.83;17.92;;;;;;;5.13;93.05;100682.41;5058202;28;20043;-68
2020/12/03 01:23:58;;;;;;;34.08;17.42;;;;;;;5.09;93.10;100679.13;5045824;28;20131;-69
2020/12/03 01:26:23;;;;;;;37.15;16.85;;;;;;;5.15;92.96;100672.53;5063200;28;20411;-69
2020/12/03 01:28:49;;;;;;;36.40;17.08;;;;;;;5.11;92.96;100663.16;5060901;28;20127;-69
2020/12/03 01:31:14;;;;;;;32.45;15.57;;;;;;;5.00;92.41;100641.06;5058523;28;20062;-69
2020/12/03 01:33:40;;;;;;;44.42;16.60;;;;;;;5.14;92.89;100662.91;5063108;28;20111;-69
2020/12/03 01:36:07;;;;;;;31.67;14.82;;;;;;;5.11;92.62;100660.50;5044484;28;20182;-69
2020/12/03 01:38:32;;;;;;;38.45;16.20;;;;;;;5.10;93.10;100664.13;5063071;28;20056;-69
2020/12/03 01:40:57;;;;;;;33.55;15.48;;;;;;;5.12;93.09;100659.56;5057681;28;20029;-69
2020/12/03 01:43:23;;;;;;;41.97;16.77;;;;;;;5.11;93.21;100660.50;5056444;28;20035;-69
2020/12/03 01:45:59;;;;;;;38.22;16.52;;;;;;;5.15;93.02;100665.44;5055174;28;20159;-69
2020/12/03 01:48:48;;;;;;;38.38;14.90;;;;;;;5.15;92.51;100661.97;5070504;28;20046;-68
2020/12/03 01:51:25;;;;;;;35.72;16.02;;;;;;;5.13;92.68;100656.78;5039236;28;20040;-69
2020/12/03 01:54:01;;;;;;;38.33;14.50;;;;;;;5.10;nan;100656.19;5062392;28;20037;-69
2020/12/03 01:57:04;;;;;;;37.95;13.95;;;;;;;5.14;91.95;100652.34;5075535;28;20028;-69
2020/12/03 01:59:38;;;;;;;34.83;14.30;;;;;;;5.15;92.38;100652.22;5062416;28;20044;-69
2020/12/03 02:02:04;;;;;;;32.67;14.18;;;;;;;5.16;92.08;100647.75;5059827;28;20364;-69
2020/12/03 02:04:30;;;;;;;33.42;14.52;;;;;;;5.16;91.75;100645.94;5043089;28;20025;-69
2020/12/03 02:07:01;;;;;;;34.88;13.82;;;;;;;5.20;91.88;100641.25;5062576;28;20578;-69
2020/12/03 02:09:27;;;;;;;25.35;12.82;;;;;;;4.97;91.43;100608.69;5058812;28;20120;-69
2020/12/03 02:11:53;;;;;;;30.73;13.27;;;;;;;5.20;90.67;100634.16;5037483;28;20176;-69
2020/12/03 02:14:18;;;;;;;28.55;13.43;;;;;;;5.24;90.22;100639.19;5053485;28;20127;-69
2020/12/03 02:16:44;;;;;;;24.27;12.48;;;;;;;5.24;90.97;100632.13;5057527;28;20063;-69
2020/12/03 02:19:27;;;;;;;32.45;13.77;;;;;;;5.27;90.06;100620.44;5055195;28;20048;-69
2020/12/03 02:22:04;;;;;;;29.77;13.35;;;;;;;5.26;90.64;100616.97;5058846;28;20044;-68
2020/12/03 02:24:35;;;;;;;31.02;12.60;;;;;;;5.21;90.13;100612.03;5059133;28;20036;-69
2020/12/03 02:27:01;;;;;;;27.67;14.27;;;;;;;5.02;90.86;100575.63;5058363;28;20037;-68
2020/12/03 02:29:26;;;;;;;30.60;12.23;;;;;;;5.18;90.63;100606.13;5044680;28;20513;-68
2020/12/03 02:31:52;;;;;;;32.47;14.07;;;;;;;5.17;90.45;100605.31;5054984;28;20471;-67
2020/12/03 02:34:18;;;;;;;33.50;13.25;;;;;;;5.18;91.10;100595.56;5058639;28;20094;-68
2020/12/03 02:36:43;;;;;;;25.10;12.40;;;;;;;5.15;90.72;100586.06;5061912;28;20101;-68
2020/12/03 02:39:09;;;;;;;22.30;12.13;;;;;;;5.20;90.41;100589.19;5058706;28;20044;-67
2020/12/03 02:41:35;;;;;;;26.05;11.60;;;;;;;5.07;90.66;100556.78;5059180;28;20028;-67
2020/12/03 02:44:00;;;;;;;30.58;13.35;;;;;;;5.18;90.59;100577.91;5050459;28;20071;-68
2020/12/03 02:46:26;;;;;;;31.88;12.32;;;;;;;5.18;90.04;100571.75;5056501;28;20039;-68
2020/12/03 02:48:51;;;;;;;38.03;12.35;;;;;;;5.17;90.63;100567.41;5073193;28;21420;-68
2020/12/03 02:51:17;;;;;;;27.85;12.43;;;;;;;5.13;90.72;100566.84;5069803;28;20036;-67
2020/12/03 02:53:42;;;;;;;33.15;12.65;;;;;;;5.14;90.29;100563.22;5059514;28;20059;-67
2020/12/03 02:56:11;;;;;;;35.85;12.30;;;;;;;5.15;91.23;100566.72;5060864;28;20131;-68
2020/12/03 02:58:36;;;;;;;33.65;12.60;;;;;;;5.18;90.77;100559.38;5054978;28;20552;-68
2020/12/03 03:01:02;;;;;;;29.90;12.07;;;;;;;5.17;90.97;100544.47;5053528;28;20045;-68
2020/12/03 03:03:27;;;;;;;34.85;12.27;;;;;;;5.19;90.61;100545.19;5059305;28;20115;-76
2020/12/03 03:05:53;;;;;;;39.97;12.68;;;;;;;5.20;91.07;100533.63;5058427;28;20559;-68
2020/12/03 03:08:18;;;;;;;28.73;11.98;;;;;;;5.20;91.05;100535.44;5063060;28;20597;-68
2020/12/03 03:10:44;;;;;;;29.50;12.00;;;;;;;4.69;90.85;100436.41;5047887;28;20123;-69
2020/12/03 03:13:09;;;;;;;32.40;11.77;;;;;;;5.26;90.32;100520.84;5058458;28;20032;-69
2020/12/03 03:15:35;;;;;;;24.88;11.52;;;;;;;5.19;90.83;100531.97;5060999;28;20028;-68
2020/12/03 03:18:00;;;;;;;32.83;13.05;;;;;;;5.14;91.50;100509.50;5050914;28;20466;-69
2020/12/03 03:20:26;;;;;;;30.80;13.15;;;;;;;5.18;91.74;100516.19;5052710;28;20043;-69
2020/12/03 03:22:51;;;;;;;36.15;13.05;;;;;;;5.18;91.16;100514.41;5055720;28;20501;-76
2020/12/03 03:25:17;;;;;;;30.67;12.85;;;;;;;5.18;90.68;100497.66;5058333;28;20127;-68
2020/12/03 03:27:42;;;;;;;34.88;13.13;;;;;;;5.26;90.72;100504.97;5055162;28;20088;-69
2020/12/03 03:30:08;;;;;;;32.95;13.57;;;;;;;5.21;91.24;100505.38;5060952;28;20135;-68
2020/12/03 03:32:34;;;;;;;31.83;12.85;;;;;;;5.19;91.42;100500.22;5055433;28;20075;-69
2020/12/03 03:34:59;;;;;;;36.80;15.13;;;;;;;5.20;91.89;100501.03;5038657;28;20065;-76
2020/12/03 03:37:25;;;;;;;38.70;14.88;;;;;;;5.13;92.05;100487.47;5059826;28;20241;-69
2020/12/03 03:39:50;;;;;;;40.50;13.52;;;;;;;5.15;92.28;100484.72;5058233;28;20502;-69
2020/12/03 03:42:16;;;;;;;36.58;15.38;;;;;;;5.15;91.87;100480.25;5056411;28;20195;-69
2020/12/03 03:44:41;;;;;;;32.17;15.70;;;;;;;5.19;92.26;100479.03;5056230;28;20059;-68
2020/12/03 03:47:07;;;;;;;36.20;16.13;;;;;;;5.18;92.04;100474.72;5059910;28;20146;-68
2020/12/03 03:49:32;;;;;;;34.08;16.92;;;;;;;5.15;93.13;100460.91;5060265;28;20135;-68
2020/12/03 03:51:58;;;;;;;37.53;18.13;;;;;;;5.18;92.40;100469.44;5057269;28;20052;-68
2020/12/03 03:54:23;;;;;;;37.78;18.23;;;;;;;5.18;93.46;100461.50;5046916;28;20123;-68
2020/12/03 03:56:49;;;;;;;38.10;18.20;;;;;;;5.22;92.82;100457.59;5062160;28;20229;-68
2020/12/03 03:59:14;;;;;;;40.50;20.05;;;;;;;5.27;92.45;100445.81;5065842;28;20047;-68
2020/12/03 04:01:40;;;;;;;36.63;20.50;;;;;;;5.28;92.72;100437.75;5060853;28;20115;-68
2020/12/03 04:04:05;;;;;;;36.08;21.48;;;;;;;5.29;92.87;100441.22;5064777;28;20123;-68
2020/12/03 04:06:31;;;;;;;41.05;21.73;;;;;;;5.29;93.50;100425.34;5062979;28;20119;-68
2020/12/03 04:08:57;;;;;;;49.20;22.58;;;;;;;5.28;93.34;100423.69;5065122;28;20139;-68
2020/12/03 04:11:22;;;;;;;40.30;22.58;;;;;;;5.28;92.82;100426.31;5056281;28;20036;-68
2020/12/03 04:13:48;;;;;;;40.60;22.83;;;;;;;5.28;93.57;100429.81;5063637;28;20063;-67
2020/12/03 04:16:13;;;;;;;46.05;23.27;;;;;;;5.31;93.89;100415.50;5061445;28;20051;-68
2020/12/03 04:18:39;;;;;;;45.80;23.85;;;;;;;5.33;93.29;100405.63;5065123;28;20032;-68
2020/12/03 04:21:06;;;;;;;41.63;22.75;;;;;;;5.35;92.91;100396.56;5060673;28;20076;-68
2020/12/03 04:23:32;;;;;;;41.88;24.35;;;;;;;5.34;92.73;100400.19;5062351;28;20036;-68
2020/12/03 04:25:57;;;;;;;47.15;24.17;;;;;;;5.35;92.67;100395.75;5064616;28;20457;-67
2020/12/03 04:28:23;;;;;;;50.28;26.52;;;;;;;5.39;92.70;100391.84;5062547;28;20175;-67
2020/12/03 04:30:48;;;;;;;51.13;26.17;;;;;;;5.24;92.96;100359.59;5060735;28;20171;-67
2020/12/03 04:33:14;;;;;;;48.65;27.02;;;;;;;5.35;93.21;100364.00;5041548;28;20170;-68
2020/12/03 04:35:39;;;;;;;40.70;27.35;;;;;;;5.46;93.05;100371.84;5045744;28;20072;-67
2020/12/03 04:38:05;;;;;;;47.10;26.17;;;;;;;5.47;93.25;100368.25;5064169;28;20131;-68
2020/12/03 04:40:33;;;;;;;47.22;27.60;;;;;;;5.36;93.30;100347.97;5059939;28;20052;-67
2020/12/03 04:43:00;;;;;;;51.55;28.92;;;;;;;5.47;92.87;100368.25;5059027;28;20048;-68
2020/12/03 04:45:39;;;;;;;55.17;30.30;;;;;;;5.46;93.08;100358.63;5045314;28;20502;-67
2020/12/03 04:48:24;;;;;;;51.33;30.40;;;;;;;5.46;93.39;100353.31;5040533;28;20098;-68
2020/12/03 04:51:28;;;;;;;54.40;30.88;;;;;;;5.45;94.09;100354.28;5044046;28;20086;-68
2020/12/03 04:54:12;;;;;;;49.72;31.80;;;;;;;5.47;94.16;100356.78;5052134;28;20044;-68
2020/12/03 04:56:45;;;;;;;57.45;33.70;;;;;;;5.42;94.19;100345.78;5062582;28;20029;-67
2020/12/03 04:59:32;;;;;;;61.45;33.22;;;;;;;5.48;94.76;100347.88;5062166;28;20041;-68
2020/12/03 05:02:17;;;;;;;60.15;35.22;;;;;;;5.35;94.18;100327.78;5056711;28;20094;-68
2020/12/03 05:04:54;;;;;;;65.65;36.25;;;;;;;5.19;94.71;100301.81;5058373;28;20035;-67
2020/12/03 05:07:19;;;;;;;57.33;35.85;;;;;;;5.43;95.20;100331.59;5063042;28;20113;-67
2020/12/03 05:09:52;;;;;;;64.35;36.95;;;;;;;5.44;94.68;100334.09;5045965;28;20107;-68
2020/12/03 05:12:21;;;;;;;63.65;38.33;;;;;;;5.44;95.51;100327.94;5060574;28;20491;-68
2020/12/03 05:14:51;;;;;;;66.57;38.08;;;;;;;5.43;95.67;100324.47;5058360;28;20044;-68
2020/12/03 05:17:40;;;;;;;68.32;37.63;;;;;;;5.42;95.30;100322.78;5051242;28;20072;-68
2020/12/03 05:20:23;;;;;;;63.72;38.92;;;;;;;5.40;95.24;100311.50;5058621;28;20048;-68
2020/12/03 05:22:56;;;;;;;61.05;38.00;;;;;;;5.26;95.79;100280.94;5058367;28;20087;-68
2020/12/03 05:25:25;;;;;;;72.22;39.63;;;;;;;5.43;95.30;100300.66;5044781;28;20550;-68
2020/12/03 05:27:52;;;;;;;74.15;38.80;;;;;;;5.44;95.99;100293.53;5060329;28;20032;-68
2020/12/03 05:30:18;;;;;;;75.53;39.28;;;;;;;5.45;95.61;100295.22;5058329;28;20097;-68
2020/12/03 05:32:44;;;;;;;59.53;37.08;;;;;;;5.49;95.12;100289.56;5061108;28;20546;-68
2020/12/03 05:35:10;;;;;;;60.50;37.05;;;;;;;5.50;95.14;100282.44;5034805;28;20024;-68
2020/12/03 05:37:36;;;;;;;61.60;37.00;;;;;;;5.49;95.83;100281.59;5062740;28;20071;-68
2020/12/03 05:40:01;;;;;;;58.28;38.35;;;;;;;5.46;95.52;100276.56;5045527;28;20404;-69
2020/12/03 05:42:30;;;;;;;65.18;38.05;;;;;;;5.46;96.04;100276.56;5058777;28;20040;-69
2020/12/03 05:44:57;;;;;;;58.58;37.17;;;;;;;4.86;95.02;100163.56;5060142;28;20036;-69
2020/12/03 05:47:26;;;;;;;64.68;36.45;;;;;;;5.53;94.71;100263.66;5059858;28;20033;-70
2020/12/03 05:50:16;;;;;;;59.45;36.30;;;;;;;5.55;94.25;100260.84;5060767;28;20028;-67
2020/12/03 05:53:05;;;;;;;60.40;36.13;;;;;;;5.53;94.71;100258.34;5060280;28;20051;-67
2020/12/03 05:55:31;;;;;;;57.65;36.78;;;;;;;5.57;94.82;100245.69;5061469;28;20398;-68
2020/12/03 05:58:11;;;;;;;49.80;33.58;;;;;;;5.60;93.98;100232.19;5043302;28;20043;-69
2020/12/03 06:00:39;;;;;;;47.45;32.42;;;;;;;5.63;93.54;100229.25;5059810;28;20028;-69
2020/12/03 06:03:26;;;;;;;51.50;34.22;;;;;;;5.67;93.55;100220.91;5059594;28;20029;-69
2020/12/03 06:06:26;;;;;;;57.20;35.85;;;;;;;5.64;93.80;100205.28;5052127;28;20067;-68
2020/12/03 06:09:15;;;;;;;46.72;33.05;;;;;;;5.59;93.87;100196.09;5061430;28;20543;-69
2020/12/03 06:11:47;;;;;;;53.28;33.60;;;;;;;5.71;93.91;100212.66;5056601;28;20072;-68
2020/12/03 06:14:31;;;;;;;51.38;33.95;;;;;;;5.75;93.66;100196.41;5063902;28;20032;-69
2020/12/03 06:17:20;;;;;;;55.15;34.00;;;;;;;5.75;93.61;100196.41;5066901;28;20098;-69
2020/12/03 06:19:56;;;;;;;52.17;35.30;;;;;;;5.77;93.51;100186.47;5039224;28;20049;-69
2020/12/03 06:22:33;;;;;;;56.45;34.83;;;;;;;5.72;93.35;100193.16;5055819;28;20119;-69
2020/12/03 06:25:20;;;;;;;59.92;37.05;;;;;;;5.69;93.20;100194.28;5044481;28;20024;-69
2020/12/03 06:27:55;;;;;;;55.45;37.55;;;;;;;5.55;94.13;100176.16;5053450;28;20051;-68
2020/12/03 06:30:22;;;;;;;61.83;39.08;;;;;;;5.60;94.46;100195.94;5045804;28;20043;-68
2020/12/03 06:33:09;;;;;;;60.65;40.35;;;;;;;5.59;95.41;100193.44;5050658;28;20474;-68
2020/12/03 06:35:49;;;;;;;65.03;40.25;;;;;;;5.60;94.92;100192.47;5061069;28;20044;-68
2020/12/03 06:38:23;;;;;;;60.88;38.38;;;;;;;5.67;94.72;100183.00;5055191;28;20147;-68
2020/12/03 06:41:01;;;;;;;52.25;35.40;;;;;;;5.74;94.56;100177.97;5043193;28;20257;-68
2020/12/03 06:43:36;;;;;;;57.75;37.30;;;;;;;5.76;93.80;100168.09;5042652;28;20042;-69
2020/12/03 06:46:36;;;;;;;60.47;36.15;;;;;;;5.76;94.10;100163.66;5040194;28;20167;-68
2020/12/03 06:49:44;;;;;;;60.08;37.10;;;;;;;5.70;93.75;100164.19;5055072;28;20238;-68
2020/12/03 06:52:47;;;;;;;56.15;34.45;;;;;;;5.73;94.29;100163.06;5056039;28;20033;-69
2020/12/03 06:55:50;;;;;;;52.88;34.80;;;;;;;5.74;93.96;100157.66;5055063;28;20476;-69
2020/12/03 06:58:37;;;;;;;60.30;38.85;;;;;;;5.71;94.40;100149.13;5055751;28;20514;-69
2020/12/03 07:01:34;;;;;;;56.20;35.50;;;;;;;5.66;94.62;100136.31;5054403;28;20215;-69
2020/12/03 07:04:25;;;;;;;59.83;36.38;;;;;;;5.76;94.26;100142.47;5035846;28;20079;-69
2020/12/03 07:06:56;;;;;;;54.70;35.90;;;;;;;5.81;93.69;100139.41;5055694;28;20065;-69
2020/12/03 07:09:37;;;;;;;51.58;33.65;;;;;;;5.80;93.47;100140.38;5059469;28;20037;-67
2020/12/03 07:12:27;;;;;;;51.28;33.97;;;;;;;5.81;94.03;100137.59;5051643;28;20064;-68
2020/12/03 07:15:31;;;;;;;51.05;33.05;;;;;;;5.83;93.43;100140.94;5055069;28;20036;-69
2020/12/03 07:18:24;;;;;;;51.78;34.47;;;;;;;5.83;93.73;100132.16;5058282;28;20274;-68
2020/12/03 07:21:16;;;;;;;57.53;35.00;;;;;;;5.70;94.14;100105.94;5054857;28;20072;-69
2020/12/03 07:24:02;;;;;;;61.53;35.83;;;;;;;5.82;93.94;100117.25;5034505;28;20059;-68
2020/12/03 07:26:55;;;;;;;66.88;39.03;;;;;;;5.81;94.29;100105.81;5056906;28;20024;-68
2020/12/03 07:29:37;;;;;;;60.80;36.55;;;;;;;5.80;94.10;100103.31;5057162;28;20064;-69
2020/12/03 07:32:03;;;;;;;57.42;36.47;;;;;;;5.64;94.05;100075.59;5054709;28;20091;-69
2020/12/03 07:34:43;;;;;;;61.15;36.08;;;;;;;5.78;94.13;100092.03;5046510;28;20028;-69
2020/12/03 07:37:29;;;;;;;62.45;36.83;;;;;;;5.77;94.35;100090.34;5047917;28;20494;-76
2020/12/03 07:39:55;;;;;;;62.92;37.10;;;;;;;5.83;93.87;100090.63;5066723;28;20032;-69
2020/12/03 07:42:21;;;;;;;64.32;38.63;;;;;;;5.76;93.78;100100.13;5046087;28;20115;-69
2020/12/03 07:44:50;;;;;;;62.10;36.53;;;;;;;5.60;94.00;100065.41;5045371;28;20048;-69
2020/12/03 07:47:33;;;;;;;64.93;39.33;;;;;;;5.83;93.47;100101.22;5057860;28;20074;-68
2020/12/03 07:50:05;;;;;;;60.03;37.83;;;;;;;5.83;93.50;100095.91;5064652;28;20131;-68
2020/12/03 07:52:34;;;;;;;67.28;38.70;;;;;;;5.89;93.92;100083.91;5067905;28;20051;-69
2020/12/03 07:55:21;;;;;;;59.10;35.15;;;;;;;5.94;93.23;100084.34;5064666;28;20147;-69
2020/12/03 07:57:51;;;;;;;70.78;37.08;;;;;;;5.91;92.75;100079.31;5085170;28;20039;-69
2020/12/03 08:00:41;;;;;;;63.33;38.25;;;;;;;5.89;93.40;100081.28;5067754;28;20236;-69
2020/12/03 08:03:08;;;;;;;60.78;37.30;;;;;;;5.72;93.25;100061.66;5065742;28;20037;-69
2020/12/03 08:05:37;;;;;;;60.88;36.17;;;;;;;5.94;93.42;100091.44;5071843;28;20095;-69
2020/12/03 08:08:03;;;;;;;64.72;37.38;;;;;;;5.91;93.29;100089.06;5074552;28;20066;-69
2020/12/03 08:10:37;;;;;;;58.17;34.22;;;;;;;5.95;93.36;100079.88;5067121;28;20036;-68
2020/12/03 08:13:21;;;;;;;60.83;37.58;;;;;;;5.94;93.27;100083.50;5063274;28;20039;-69
2020/12/03 08:15:57;;;;;;;57.45;35.88;;;;;;;5.91;92.78;100074.03;5071978;28;20427;-70
2020/12/03 08:18:39;;;;;;;64.55;38.22;;;;;;;5.34;93.23;99976.84;5067795;28;20036;-70
2020/12/03 08:21:05;;;;;;;59.17;35.92;;;;;;;5.93;93.37;100063.28;5062901;28;20060;-70
2020/12/03 08:23:30;;;;;;;62.83;38.88;;;;;;;5.94;92.95;100068.44;5061966;28;20044;-70
2020/12/03 08:25:56;;;;;;;62.38;37.80;;;;;;;5.69;92.82;100027.50;5062795;28;20055;-69
2020/12/03 08:28:27;;;;;;;60.95;37.33;;;;;;;5.97;92.92;100057.56;5059732;28;20032;-69
2020/12/03 08:30:55;;;;;;;61.75;39.53;;;;;;;5.98;92.62;100066.34;5057261;28;20044;-69
2020/12/03 08:33:32;;;;;;;58.50;38.22;;;;;;;6.01;92.76;100046.72;5064336;28;20075;-69
2020/12/03 08:36:08;;;;;;;60.22;38.33;;;;;;;5.95;92.62;100046.28;5081867;28;20224;-69
2020/12/03 08:38:37;;;;;;;61.47;38.47;;;;;;;5.80;92.45;100021.22;5061308;28;20028;-69
2020/12/03 08:41:11;;;;;;;65.72;39.25;;;;;;;5.60;93.07;100001.91;5045698;28;20526;-69
2020/12/03 08:43:47;;;;;;;59.63;38.50;;;;;;;5.85;93.17;100041.97;5066562;28;20021;-73
2020/12/03 08:46:19;;;;;;;57.45;36.63;;;;;;;5.94;92.75;100041.97;5052169;28;20471;-69
2020/12/03 08:48:45;;;;;;;57.05;37.75;;;;;;;5.93;92.75;100042.09;5062107;28;20100;-69
2020/12/03 08:51:12;;;;;;;62.55;37.58;;;;;;;5.79;92.83;100009.78;5060703;28;20477;-69
2020/12/03 08:53:39;;;;;;;59.20;38.50;;;;;;;5.97;92.57;100039.00;5046117;28;20125;-68
2020/12/03 08:56:17;;;;;;;58.60;37.35;;;;;;;5.96;92.32;100017.97;5064904;28;20037;-69
2020/12/03 08:58:51;;;;;;;59.92;36.45;;;;;;;5.82;92.61;99990.97;5063961;28;20088;-69
2020/12/03 09:01:18;;;;;;;53.72;36.10;;;;;;;6.00;92.31;100008.81;5076027;28;20387;-69
2020/12/03 09:03:43;;;;;;;53.47;34.40;;;;;;;6.03;92.13;99990.00;5042819;28;20535;-69
2020/12/03 09:06:10;;;;;;;54.40;34.90;;;;;;;6.03;91.49;99981.19;5061639;28;20123;-69
2020/12/03 09:08:35;;;;;;;50.08;32.90;;;;;;;5.91;91.38;99983.97;5066507;28;20080;-69
2020/12/03 09:11:01;;;;;;;49.22;32.33;;;;;;;6.04;91.41;99981.03;5019718;28;20873;-70
2020/12/03 09:13:27;;;;;;;45.03;31.65;;;;;;;5.83;91.54;99934.41;5061754;28;20121;-69
2020/12/03 09:15:53;;;;;;;40.22;28.83;;;;;;;5.93;90.68;99939.66;5041107;28;20045;-69
2020/12/03 09:18:19;;;;;;;40.30;29.55;;;;;;;6.13;90.43;99955.50;5060649;28;20487;-69
2020/12/03 09:20:45;;;;;;;46.10;31.95;;;;;;;6.13;90.61;99939.59;5060382;28;20059;-69
2020/12/03 09:23:18;;;;;;;48.38;33.53;;;;;;;6.13;90.08;99943.09;5056986;28;20210;-70
2020/12/03 09:25:43;;;;;;;51.10;35.53;;;;;;;6.16;90.00;99947.25;5062210;28;20039;-69
2020/12/03 09:28:09;;;;;;;51.38;37.05;;;;;;;6.10;90.37;99935.44;5058396;28;20040;-69
2020/12/03 09:30:34;;;;;;;49.47;37.45;;;;;;;5.98;90.08;99915.38;5061065;28;20214;-69
2020/12/03 09:33:01;;;;;;;48.65;36.55;;;;;;;6.16;90.10;99926.06;5038268;28;20058;-69
2020/12/03 09:35:28;;;;;;;52.45;37.03;;;;;;;6.16;90.30;99927.91;5041758;28;20491;-69
2020/12/03 09:37:59;;;;;;;53.10;37.72;;;;;;;6.19;89.83;99919.63;5023411;28;20040;-69
2020/12/03 09:40:25;;;;;;;55.75;38.38;;;;;;;6.11;90.57;99918.56;5037253;28;21934;-69
2020/12/03 09:42:52;;;;;;;47.53;35.22;;;;;;;6.11;89.96;99915.06;5039659;28;20497;-69
2020/12/03 09:45:21;;;;;;;51.25;34.50;;;;;;;6.05;90.45;99908.53;5056228;28;20052;-69
2020/12/03 09:47:46;;;;;;;49.72;34.53;;;;;;;6.02;90.65;99915.94;5073290;28;20051;-69
2020/12/03 09:50:13;;;;;;;45.95;34.17;;;;;;;6.03;90.84;99905.22;5055841;28;20486;-69
2020/12/03 09:52:40;;;;;;;50.22;34.25;;;;;;;6.04;90.79;99908.69;5051754;28;20032;-69
2020/12/03 09:55:10;;;;;;;49.10;33.33;;;;;;;6.03;90.92;99896.44;5056955;28;20059;-69
2020/12/03 09:57:36;;;;;;;47.92;32.15;;;;;;;5.99;90.59;99898.50;5062932;28;20131;-69
2020/12/03 10:00:06;;;;;;;48.60;31.80;;;;;;;6.04;91.05;99887.50;5033512;28;20143;-70
2020/12/03 10:02:54;;;;;;;50.35;31.23;;;;;;;6.03;90.44;99889.34;5052216;28;20043;-68
2020/12/03 10:05:20;;;;;;;43.45;29.90;;;;;;;5.97;90.75;99879.28;5062986;28;20044;-69
2020/12/03 10:08:19;;;;;;;45.38;29.63;;;;;;;5.97;90.36;99879.28;5049037;28;20729;-69
2020/12/03 10:11:13;;;;;;;44.63;29.08;;;;;;;6.04;90.41;99867.13;5065550;28;20032;-69
2020/12/03 10:14:13;;;;;;;45.03;28.85;;;;;;;5.98;90.58;99857.94;5029786;28;20044;-69
2020/12/03 10:16:40;;;;;;;39.95;27.50;;;;;;;6.05;90.11;99857.41;5058175;28;20498;-70
2020/12/03 10:19:07;;;;;;;43.10;27.95;;;;;;;5.74;90.20;99802.06;5041432;28;20398;-69
2020/12/03 10:21:35;;;;;;;42.97;29.13;;;;;;;6.06;89.91;99848.47;5041242;28;20427;-69
2020/12/03 10:24:08;;;;;;;38.63;26.92;;;;;;;6.07;89.86;99847.50;5067019;28;20115;-68
2020/12/03 10:26:52;;;;;;;37.75;27.98;;;;;;;6.08;89.80;99842.03;5060930;28;20036;-68
2020/12/03 10:29:30;;;;;;;41.80;29.17;;;;;;;6.03;89.62;99833.72;5057784;28;20169;-68
2020/12/03 10:31:56;;;;;;;;;;;;;;;6.00;90.22;99834.00;5056804;28;20054;-68
2020/12/03 10:34:21;;;;;;;39.88;27.20;;;;;;;6.02;89.50;99823.25;5054899;28;19921;-69
2020/12/03 10:36:59;;;;;;;42.45;29.30;;;;;;;5.94;90.29;99819.50;5069905;28;20025;-69
2020/12/03 10:39:30;;;;;;;43.15;28.35;;;;;;;5.97;89.96;99818.38;5057072;28;20025;-68
2020/12/03 10:41:56;;;;;;;41.53;28.95;;;;;;;5.97;89.96;99802.47;5055456;28;20032;-69
2020/12/03 10:44:25;;;;;;;38.78;28.58;;;;;;;6.06;89.83;99806.09;5050737;28;20139;-70
2020/12/03 10:46:54;;;;;;;36.75;28.05;;;;;;;6.04;89.85;99797.47;5057478;28;20047;-69
2020/12/03 10:49:21;;;;;;;44.78;29.10;;;;;;;6.04;90.04;99792.97;5050471;28;20494;-68
2020/12/03 10:51:47;;;;;;;40.28;27.65;;;;;;;5.82;89.71;99762.44;5039154;28;20036;-69
2020/12/03 10:54:16;;;;;;;42.10;30.13;;;;;;;6.06;89.74;99780.44;5046378;28;20119;-69
2020/12/03 10:56:42;;;;;;;42.92;29.08;;;;;;;5.94;90.45;99758.59;5054506;28;20067;-69
2020/12/03 10:59:11;;;;;;;43.63;29.33;;;;;;;6.09;89.70;99771.38;5019450;28;20531;-69
2020/12/03 11:01:37;;;;;;;42.55;30.52;;;;;;;6.06;89.57;99761.06;5049592;28;20486;-69
2020/12/03 11:04:06;;;;;;;41.28;30.52;;;;;;;6.05;90.07;99754.91;5060171;28;20127;-69
2020/12/03 11:06:32;;;;;;;44.45;31.25;;;;;;;5.98;89.19;99730.00;5059964;28;20116;-70
2020/12/03 11:09:01;;;;;;;43.92;31.17;;;;;;;6.11;89.30;99754.34;5063914;28;20086;-68
2020/12/03 11:11:35;;;;;;;41.08;30.23;;;;;;;6.09;89.26;99737.75;5063840;28;20057;-69
2020/12/03 11:14:01;;;;;;;42.92;30.40;;;;;;;6.13;89.63;99747.06;5056571;28;20028;-69
2020/12/03 11:16:28;;;;;;;45.05;30.38;;;;;;;5.97;89.30;99702.66;5057802;28;20502;-68
2020/12/03 11:18:54;;;;;;;42.50;29.25;;;;;;;6.09;89.61;99694.56;5058474;28;20035;-68
2020/12/03 11:21:25;;;;;;;42.80;29.80;;;;;;;6.19;89.39;99711.19;5055776;28;20104;-68
2020/12/03 11:24:00;;;;;;;38.00;27.42;;;;;;;6.22;88.83;99705.59;5042503;28;20659;-68
2020/12/03 11:26:28;;;;;;;36.55;25.60;;;;;;;5.69;89.05;99616.38;5063824;28;20040;-68
2020/12/03 11:28:53;;;;;;;34.05;25.48;;;;;;;6.27;88.72;99681.28;5075716;28;20043;-68
2020/12/03 11:31:29;;;;;;;33.33;23.65;;;;;;;6.26;88.19;99680.44;5059023;28;20116;-68
2020/12/03 11:33:55;;;;;;;33.38;24.58;;;;;;;6.26;88.31;99679.63;5060541;28;20086;-69
2020/12/03 11:36:20;;;;;;;36.17;23.60;;;;;;;6.19;89.12;99670.59;5059760;28;20056;-69
2020/12/03 11:38:53;;;;;;;32.38;21.52;;;;;;;6.16;88.36;99649.75;5059537;28;20508;-70